sensor_id;sensor_type;location;lat;lon;timestamp;P1;durP1;ratioP1;P2;durP2;ratioP2
60243;SDS011;46106;51.468;5.814;2023-01-08T00:00:49;4.40;;;2.58;;
60243;SDS011;46106;51.468;5.814;2023-01-08T00:03:15;5.45;;;2.47;;
60243;SDS011;46106;51.468;5.814;2023-01-08T00:05:41;11.48;;;3.28;;
60243;SDS011;46106;51.468;5.814;2023-01-08T00:08:07;4.55;;;2.58;;
60243;SDS011;46106;51.468;5.814;2023-01-08T00:10:33;5.70;;;2.45;;
60243;SDS011;46106;51.468;5.814;2023-01-08T00:13:02;7.72;;;2.47;;
60243;SDS011;46106;51.468;5.814;2023-01-08T00:15:28;3.20;;;2.38;;
60243;SDS011;46106;51.468;5.814;2023-01-08T00:17:57;6.72;;;2.40;;
60243;SDS011;46106;51.468;5.814;2023-01-08T00:20:23;9.98;;;2.35;;
60243;SDS011;46106;51.468;5.814;2023-01-08T00:22:49;6.43;;;2.65;;
60243;SDS011;46106;51.468;5.814;2023-01-08T00:25:15;7.07;;;2.55;;
60243;SDS011;46106;51.468;5.814;2023-01-08T00:27:41;5.72;;;2.35;;
60243;SDS011;46106;51.468;5.814;2023-01-08T00:30:07;11.30;;;2.97;;
60243;SDS011;46106;51.468;5.814;2023-01-08T00:32:33;8.30;;;2.67;;
60243;SDS011;46106;51.468;5.814;2023-01-08T00:34:58;4.72;;;2.40;;
60243;SDS011;46106;51.468;5.814;2023-01-08T00:37:26;5.60;;;2.20;;
60243;SDS011;46106;51.468;5.814;2023-01-08T00:39:52;5.07;;;2.85;;
60243;SDS011;46106;51.468;5.814;2023-01-08T00:42:17;4.47;;;2.25;;
60243;SDS011;46106;51.468;5.814;2023-01-08T00:44:43;4.03;;;2.45;;
60243;SDS011;46106;51.468;5.814;2023-01-08T00:47:08;4.78;;;2.08;;
60243;SDS011;46106;51.468;5.814;2023-01-08T00:49:34;8.55;;;2.40;;
60243;SDS011;46106;51.468;5.814;2023-01-08T00:51:59;5.60;;;2.85;;
60243;SDS011;46106;51.468;5.814;2023-01-08T00:54:25;5.35;;;2.63;;
60243;SDS011;46106;51.468;5.814;2023-01-08T00:56:50;6.25;;;2.70;;
60243;SDS011;46106;51.468;5.814;2023-01-08T00:59:16;7.05;;;2.83;;
60243;SDS011;46106;51.468;5.814;2023-01-08T01:01:41;6.47;;;2.30;;
60243;SDS011;46106;51.468;5.814;2023-01-08T01:04:07;8.85;;;2.60;;
60243;SDS011;46106;51.468;5.814;2023-01-08T01:06:32;6.15;;;2.50;;
60243;SDS011;46106;51.468;5.814;2023-01-08T01:08:58;8.40;;;2.55;;
60243;SDS011;46106;51.468;5.814;2023-01-08T01:11:25;11.55;;;2.55;;
60243;SDS011;46106;51.468;5.814;2023-01-08T01:13:51;6.55;;;2.50;;
60243;SDS011;46106;51.468;5.814;2023-01-08T01:16:19;7.60;;;2.67;;
60243;SDS011;46106;51.468;5.814;2023-01-08T01:18:44;5.13;;;2.78;;
60243;SDS011;46106;51.468;5.814;2023-01-08T01:21:31;15.05;;;3.67;;
60243;SDS011;46106;51.468;5.814;2023-01-08T01:23:57;6.70;;;3.08;;
60243;SDS011;46106;51.468;5.814;2023-01-08T01:26:24;7.20;;;2.65;;
60243;SDS011;46106;51.468;5.814;2023-01-08T01:28:51;7.15;;;2.65;;
60243;SDS011;46106;51.468;5.814;2023-01-08T01:31:19;7.35;;;2.38;;
60243;SDS011;46106;51.468;5.814;2023-01-08T01:33:45;9.00;;;2.80;;
60243;SDS011;46106;51.468;5.814;2023-01-08T01:36:11;5.85;;;2.60;;
60243;SDS011;46106;51.468;5.814;2023-01-08T01:38:41;5.25;;;2.85;;
60243;SDS011;46106;51.468;5.814;2023-01-08T01:41:08;6.30;;;2.70;;
60243;SDS011;46106;51.468;5.814;2023-01-08T01:43:42;9.40;;;2.58;;
60243;SDS011;46106;51.468;5.814;2023-01-08T01:46:15;9.77;;;3.00;;
60243;SDS011;46106;51.468;5.814;2023-01-08T01:48:47;4.13;;;2.72;;
60243;SDS011;46106;51.468;5.814;2023-01-08T01:51:17;6.13;;;2.53;;
60243;SDS011;46106;51.468;5.814;2023-01-08T01:53:43;8.32;;;3.13;;
60243;SDS011;46106;51.468;5.814;2023-01-08T01:56:09;7.80;;;2.80;;
60243;SDS011;46106;51.468;5.814;2023-01-08T01:58:35;10.82;;;3.10;;
60243;SDS011;46106;51.468;5.814;2023-01-08T02:01:02;3.88;;;2.53;;
60243;SDS011;46106;51.468;5.814;2023-01-08T02:03:31;10.05;;;2.90;;
60243;SDS011;46106;51.468;5.814;2023-01-08T02:08:30;8.57;;;3.17;;
60243;SDS011;46106;51.468;5.814;2023-01-08T02:11:10;8.18;;;2.75;;
60243;SDS011;46106;51.468;5.814;2023-01-08T02:13:42;9.82;;;3.00;;
60243;SDS011;46106;51.468;5.814;2023-01-08T02:16:21;6.28;;;2.95;;
60243;SDS011;46106;51.468;5.814;2023-01-08T02:18:59;10.98;;;3.05;;
60243;SDS011;46106;51.468;5.814;2023-01-08T02:24:18;5.68;;;2.38;;
60243;SDS011;46106;51.468;5.814;2023-01-08T02:26:47;5.65;;;2.75;;
60243;SDS011;46106;51.468;5.814;2023-01-08T02:29:19;5.88;;;0.98;;
60243;SDS011;46106;51.468;5.814;2023-01-08T02:31:48;3.00;;;0.80;;
60243;SDS011;46106;51.468;5.814;2023-01-08T02:34:13;4.03;;;1.02;;
60243;SDS011;46106;51.468;5.814;2023-01-08T02:36:43;4.60;;;0.95;;
60243;SDS011;46106;51.468;5.814;2023-01-08T02:42:25;2.65;;;0.73;;
60243;SDS011;46106;51.468;5.814;2023-01-08T02:45:08;3.88;;;0.60;;
60243;SDS011;46106;51.468;5.814;2023-01-08T02:47:44;2.30;;;0.60;;
60243;SDS011;46106;51.468;5.814;2023-01-08T02:50:25;10.02;;;0.57;;
60243;SDS011;46106;51.468;5.814;2023-01-08T02:53:05;2.10;;;0.63;;
60243;SDS011;46106;51.468;5.814;2023-01-08T02:55:46;3.40;;;0.65;;
60243;SDS011;46106;51.468;5.814;2023-01-08T02:58:24;0.73;;;0.50;;
60243;SDS011;46106;51.468;5.814;2023-01-08T03:00:51;3.75;;;0.63;;
60243;SDS011;46106;51.468;5.814;2023-01-08T03:03:20;4.28;;;0.90;;
60243;SDS011;46106;51.468;5.814;2023-01-08T03:05:49;3.33;;;0.65;;
60243;SDS011;46106;51.468;5.814;2023-01-08T03:08:18;2.22;;;0.70;;
60243;SDS011;46106;51.468;5.814;2023-01-08T03:10:45;2.63;;;0.90;;
60243;SDS011;46106;51.468;5.814;2023-01-08T03:13:18;3.58;;;0.77;;
60243;SDS011;46106;51.468;5.814;2023-01-08T03:15:52;5.32;;;0.60;;
60243;SDS011;46106;51.468;5.814;2023-01-08T03:18:29;4.03;;;0.90;;
60243;SDS011;46106;51.468;5.814;2023-01-08T03:21:01;4.80;;;0.65;;
60243;SDS011;46106;51.468;5.814;2023-01-08T03:23:30;7.57;;;1.17;;
60243;SDS011;46106;51.468;5.814;2023-01-08T03:25:59;5.15;;;0.65;;
60243;SDS011;46106;51.468;5.814;2023-01-08T03:28:26;5.72;;;0.75;;
60243;SDS011;46106;51.468;5.814;2023-01-08T03:30:54;2.28;;;0.60;;
60243;SDS011;46106;51.468;5.814;2023-01-08T03:33:22;7.40;;;1.15;;
60243;SDS011;46106;51.468;5.814;2023-01-08T03:35:49;1.80;;;0.60;;
60243;SDS011;46106;51.468;5.814;2023-01-08T03:38:19;4.80;;;0.75;;
60243;SDS011;46106;51.468;5.814;2023-01-08T03:40:49;5.28;;;0.75;;
60243;SDS011;46106;51.468;5.814;2023-01-08T03:43:19;7.73;;;0.70;;
60243;SDS011;46106;51.468;5.814;2023-01-08T03:45:47;8.68;;;0.82;;
60243;SDS011;46106;51.468;5.814;2023-01-08T03:48:17;3.27;;;0.50;;
60243;SDS011;46106;51.468;5.814;2023-01-08T03:50:45;6.28;;;0.57;;
60243;SDS011;46106;51.468;5.814;2023-01-08T03:53:11;4.38;;;0.52;;
60243;SDS011;46106;51.468;5.814;2023-01-08T03:55:36;6.90;;;1.00;;
60243;SDS011;46106;51.468;5.814;2023-01-08T03:58:01;3.00;;;0.50;;
60243;SDS011;46106;51.468;5.814;2023-01-08T04:00:27;1.77;;;0.60;;
60243;SDS011;46106;51.468;5.814;2023-01-08T04:02:52;1.50;;;0.40;;
60243;SDS011;46106;51.468;5.814;2023-01-08T04:05:18;2.80;;;0.60;;
60243;SDS011;46106;51.468;5.814;2023-01-08T04:07:43;5.45;;;0.63;;
60243;SDS011;46106;51.468;5.814;2023-01-08T04:10:09;1.67;;;0.50;;
60243;SDS011;46106;51.468;5.814;2023-01-08T04:12:34;8.23;;;0.68;;
60243;SDS011;46106;51.468;5.814;2023-01-08T04:15:00;7.82;;;0.77;;
60243;SDS011;46106;51.468;5.814;2023-01-08T04:17:25;4.53;;;0.52;;
60243;SDS011;46106;51.468;5.814;2023-01-08T04:19:51;5.65;;;0.60;;
60243;SDS011;46106;51.468;5.814;2023-01-08T04:22:16;5.20;;;0.57;;
60243;SDS011;46106;51.468;5.814;2023-01-08T04:24:42;7.07;;;0.70;;
60243;SDS011;46106;51.468;5.814;2023-01-08T04:27:07;4.07;;;0.70;;
60243;SDS011;46106;51.468;5.814;2023-01-08T04:29:32;3.17;;;0.60;;
60243;SDS011;46106;51.468;5.814;2023-01-08T04:31:58;7.05;;;0.90;;
60243;SDS011;46106;51.468;5.814;2023-01-08T04:34:24;3.70;;;0.70;;
60243;SDS011;46106;51.468;5.814;2023-01-08T04:36:49;4.53;;;0.85;;
60243;SDS011;46106;51.468;5.814;2023-01-08T04:39:15;8.02;;;1.33;;
60243;SDS011;46106;51.468;5.814;2023-01-08T04:41:40;4.38;;;0.70;;
60243;SDS011;46106;51.468;5.814;2023-01-08T04:44:06;8.18;;;1.00;;
60243;SDS011;46106;51.468;5.814;2023-01-08T04:46:31;7.55;;;1.13;;
60243;SDS011;46106;51.468;5.814;2023-01-08T04:48:56;9.10;;;1.10;;
60243;SDS011;46106;51.468;5.814;2023-01-08T04:51:22;7.65;;;1.27;;
60243;SDS011;46106;51.468;5.814;2023-01-08T04:53:47;7.18;;;1.10;;
60243;SDS011;46106;51.468;5.814;2023-01-08T04:56:13;9.90;;;1.38;;
60243;SDS011;46106;51.468;5.814;2023-01-08T04:58:39;6.47;;;1.95;;
60243;SDS011;46106;51.468;5.814;2023-01-08T05:01:08;4.65;;;1.88;;
60243;SDS011;46106;51.468;5.814;2023-01-08T05:03:40;5.45;;;2.03;;
60243;SDS011;46106;51.468;5.814;2023-01-08T05:06:05;6.20;;;1.88;;
60243;SDS011;46106;51.468;5.814;2023-01-08T05:08:31;5.85;;;2.55;;
60243;SDS011;46106;51.468;5.814;2023-01-08T05:10:57;8.38;;;2.95;;
60243;SDS011;46106;51.468;5.814;2023-01-08T05:13:23;7.20;;;2.45;;
60243;SDS011;46106;51.468;5.814;2023-01-08T05:15:49;7.90;;;3.38;;
60243;SDS011;46106;51.468;5.814;2023-01-08T05:18:14;5.97;;;2.72;;
60243;SDS011;46106;51.468;5.814;2023-01-08T05:20:39;13.30;;;2.38;;
60243;SDS011;46106;51.468;5.814;2023-01-08T05:23:05;4.63;;;2.00;;
60243;SDS011;46106;51.468;5.814;2023-01-08T05:25:30;6.32;;;1.90;;
60243;SDS011;46106;51.468;5.814;2023-01-08T05:27:56;3.75;;;1.88;;
60243;SDS011;46106;51.468;5.814;2023-01-08T05:30:22;6.85;;;1.88;;
60243;SDS011;46106;51.468;5.814;2023-01-08T05:32:48;5.55;;;1.70;;
60243;SDS011;46106;51.468;5.814;2023-01-08T05:35:13;4.20;;;1.30;;
60243;SDS011;46106;51.468;5.814;2023-01-08T05:37:38;7.22;;;1.60;;
60243;SDS011;46106;51.468;5.814;2023-01-08T05:40:04;3.55;;;1.30;;
60243;SDS011;46106;51.468;5.814;2023-01-08T05:42:32;5.63;;;1.33;;
60243;SDS011;46106;51.468;5.814;2023-01-08T05:44:58;6.60;;;1.40;;
60243;SDS011;46106;51.468;5.814;2023-01-08T05:47:23;2.67;;;1.15;;
60243;SDS011;46106;51.468;5.814;2023-01-08T05:49:48;4.03;;;1.20;;
60243;SDS011;46106;51.468;5.814;2023-01-08T05:52:14;5.28;;;1.15;;
60243;SDS011;46106;51.468;5.814;2023-01-08T05:54:39;7.03;;;1.30;;
60243;SDS011;46106;51.468;5.814;2023-01-08T05:57:05;2.95;;;1.08;;
60243;SDS011;46106;51.468;5.814;2023-01-08T05:59:30;2.95;;;1.02;;
60243;SDS011;46106;51.468;5.814;2023-01-08T06:01:55;9.13;;;1.23;;
60243;SDS011;46106;51.468;5.814;2023-01-08T06:04:21;1.80;;;0.82;;
60243;SDS011;46106;51.468;5.814;2023-01-08T06:06:46;7.88;;;0.90;;
60243;SDS011;46106;51.468;5.814;2023-01-08T06:09:12;8.70;;;1.05;;
60243;SDS011;46106;51.468;5.814;2023-01-08T06:11:37;4.97;;;0.80;;
60243;SDS011;46106;51.468;5.814;2023-01-08T06:14:02;8.63;;;0.88;;
60243;SDS011;46106;51.468;5.814;2023-01-08T06:16:28;9.48;;;1.02;;
60243;SDS011;46106;51.468;5.814;2023-01-08T06:18:53;5.25;;;0.93;;
60243;SDS011;46106;51.468;5.814;2023-01-08T06:21:19;6.70;;;1.00;;
60243;SDS011;46106;51.468;5.814;2023-01-08T06:23:44;4.90;;;0.75;;
60243;SDS011;46106;51.468;5.814;2023-01-08T06:26:11;9.13;;;0.60;;
60243;SDS011;46106;51.468;5.814;2023-01-08T06:28:36;4.82;;;0.68;;
60243;SDS011;46106;51.468;5.814;2023-01-08T06:31:02;2.10;;;0.50;;
60243;SDS011;46106;51.468;5.814;2023-01-08T06:33:28;7.38;;;0.80;;
60243;SDS011;46106;51.468;5.814;2023-01-08T06:35:54;7.03;;;0.90;;
60243;SDS011;46106;51.468;5.814;2023-01-08T06:38:24;10.70;;;0.90;;
60243;SDS011;46106;51.468;5.814;2023-01-08T06:40:50;4.82;;;0.60;;
60243;SDS011;46106;51.468;5.814;2023-01-08T06:43:16;3.78;;;0.80;;
60243;SDS011;46106;51.468;5.814;2023-01-08T06:45:41;6.45;;;0.68;;
60243;SDS011;46106;51.468;5.814;2023-01-08T06:48:07;1.58;;;0.57;;
60243;SDS011;46106;51.468;5.814;2023-01-08T06:50:33;1.05;;;0.57;;
60243;SDS011;46106;51.468;5.814;2023-01-08T06:52:58;11.30;;;1.23;;
60243;SDS011;46106;51.468;5.814;2023-01-08T06:55:24;2.75;;;0.80;;
60243;SDS011;46106;51.468;5.814;2023-01-08T06:57:53;8.32;;;0.60;;
60243;SDS011;46106;51.468;5.814;2023-01-08T07:00:19;8.90;;;0.65;;
60243;SDS011;46106;51.468;5.814;2023-01-08T07:02:47;10.13;;;0.63;;
60243;SDS011;46106;51.468;5.814;2023-01-08T07:05:13;5.10;;;0.65;;
60243;SDS011;46106;51.468;5.814;2023-01-08T07:07:39;8.38;;;1.10;;
60243;SDS011;46106;51.468;5.814;2023-01-08T07:10:04;6.18;;;1.20;;
60243;SDS011;46106;51.468;5.814;2023-01-08T07:12:30;9.02;;;1.10;;
60243;SDS011;46106;51.468;5.814;2023-01-08T07:14:55;10.63;;;1.30;;
60243;SDS011;46106;51.468;5.814;2023-01-08T07:17:21;5.60;;;0.73;;
60243;SDS011;46106;51.468;5.814;2023-01-08T07:19:46;4.50;;;1.02;;
60243;SDS011;46106;51.468;5.814;2023-01-08T07:22:11;4.30;;;0.77;;
60243;SDS011;46106;51.468;5.814;2023-01-08T07:24:37;3.33;;;0.60;;
60243;SDS011;46106;51.468;5.814;2023-01-08T07:27:02;7.65;;;0.50;;
60243;SDS011;46106;51.468;5.814;2023-01-08T07:29:28;6.72;;;1.00;;
60243;SDS011;46106;51.468;5.814;2023-01-08T07:31:53;7.13;;;0.90;;
60243;SDS011;46106;51.468;5.814;2023-01-08T07:36:56;5.13;;;0.55;;
60243;SDS011;46106;51.468;5.814;2023-01-08T07:39:22;3.78;;;0.50;;
60243;SDS011;46106;51.468;5.814;2023-01-08T07:41:47;8.55;;;0.85;;
60243;SDS011;46106;51.468;5.814;2023-01-08T07:44:13;3.75;;;0.55;;
60243;SDS011;46106;51.468;5.814;2023-01-08T07:46:39;6.30;;;0.65;;
60243;SDS011;46106;51.468;5.814;2023-01-08T07:49:04;3.53;;;0.65;;
60243;SDS011;46106;51.468;5.814;2023-01-08T07:51:30;6.55;;;0.80;;
60243;SDS011;46106;51.468;5.814;2023-01-08T07:53:55;8.90;;;0.60;;
60243;SDS011;46106;51.468;5.814;2023-01-08T07:56:21;7.05;;;1.00;;
60243;SDS011;46106;51.468;5.814;2023-01-08T07:58:48;7.88;;;0.90;;
60243;SDS011;46106;51.468;5.814;2023-01-08T08:01:13;7.28;;;0.93;;
60243;SDS011;46106;51.468;5.814;2023-01-08T08:03:39;5.57;;;0.75;;
60243;SDS011;46106;51.468;5.814;2023-01-08T08:08:40;7.38;;;0.82;;
60243;SDS011;46106;51.468;5.814;2023-01-08T08:11:06;7.55;;;0.98;;
60243;SDS011;46106;51.468;5.814;2023-01-08T08:13:32;9.63;;;0.77;;
60243;SDS011;46106;51.468;5.814;2023-01-08T08:16:03;10.68;;;0.90;;
60243;SDS011;46106;51.468;5.814;2023-01-08T08:18:29;5.80;;;0.70;;
60243;SDS011;46106;51.468;5.814;2023-01-08T08:20:55;8.80;;;0.80;;
60243;SDS011;46106;51.468;5.814;2023-01-08T08:23:22;14.40;;;1.10;;
60243;SDS011;46106;51.468;5.814;2023-01-08T08:25:47;10.00;;;0.90;;
60243;SDS011;46106;51.468;5.814;2023-01-08T08:28:13;7.28;;;0.80;;
60243;SDS011;46106;51.468;5.814;2023-01-08T08:30:38;13.35;;;0.80;;
60243;SDS011;46106;51.468;5.814;2023-01-08T08:33:04;10.73;;;1.40;;
60243;SDS011;46106;51.468;5.814;2023-01-08T08:35:31;11.05;;;1.45;;
60243;SDS011;46106;51.468;5.814;2023-01-08T08:37:58;12.60;;;1.60;;
60243;SDS011;46106;51.468;5.814;2023-01-08T08:40:24;13.90;;;1.10;;
60243;SDS011;46106;51.468;5.814;2023-01-08T08:42:54;6.95;;;1.00;;
60243;SDS011;46106;51.468;5.814;2023-01-08T08:45:24;13.77;;;1.42;;
60243;SDS011;46106;51.468;5.814;2023-01-08T08:47:50;9.25;;;1.48;;
60243;SDS011;46106;51.468;5.814;2023-01-08T08:50:15;12.95;;;1.60;;
60243;SDS011;46106;51.468;5.814;2023-01-08T08:52:41;10.90;;;1.38;;
60243;SDS011;46106;51.468;5.814;2023-01-08T08:55:09;12.68;;;1.13;;
60243;SDS011;46106;51.468;5.814;2023-01-08T08:57:39;11.73;;;1.00;;
60243;SDS011;46106;51.468;5.814;2023-01-08T09:00:04;5.38;;;0.82;;
60243;SDS011;46106;51.468;5.814;2023-01-08T09:02:30;6.47;;;1.20;;
60243;SDS011;46106;51.468;5.814;2023-01-08T09:04:56;13.32;;;1.50;;
60243;SDS011;46106;51.468;5.814;2023-01-08T09:07:21;12.40;;;2.13;;
60243;SDS011;46106;51.468;5.814;2023-01-08T09:09:46;14.65;;;1.90;;
60243;SDS011;46106;51.468;5.814;2023-01-08T09:12:12;8.93;;;1.63;;
60243;SDS011;46106;51.468;5.814;2023-01-08T09:14:37;14.02;;;1.60;;
60243;SDS011;46106;51.468;5.814;2023-01-08T09:17:03;11.27;;;1.50;;
60243;SDS011;46106;51.468;5.814;2023-01-08T09:19:28;6.88;;;1.23;;
60243;SDS011;46106;51.468;5.814;2023-01-08T09:21:54;10.32;;;1.27;;
60243;SDS011;46106;51.468;5.814;2023-01-08T09:24:19;13.00;;;1.63;;
60243;SDS011;46106;51.468;5.814;2023-01-08T09:26:45;4.38;;;0.98;;
60243;SDS011;46106;51.468;5.814;2023-01-08T09:29:10;6.72;;;1.15;;
60243;SDS011;46106;51.468;5.814;2023-01-08T09:31:36;11.68;;;1.42;;
60243;SDS011;46106;51.468;5.814;2023-01-08T09:34:01;10.50;;;1.27;;
60243;SDS011;46106;51.468;5.814;2023-01-08T09:36:27;9.68;;;1.20;;
60243;SDS011;46106;51.468;5.814;2023-01-08T09:38:52;11.40;;;1.13;;
60243;SDS011;46106;51.468;5.814;2023-01-08T09:41:25;7.97;;;1.10;;
60243;SDS011;46106;51.468;5.814;2023-01-08T09:43:53;8.50;;;1.15;;
60243;SDS011;46106;51.468;5.814;2023-01-08T09:46:22;15.85;;;1.17;;
60243;SDS011;46106;51.468;5.814;2023-01-08T09:48:50;11.07;;;1.40;;
60243;SDS011;46106;51.468;5.814;2023-01-08T09:51:18;7.93;;;1.05;;
60243;SDS011;46106;51.468;5.814;2023-01-08T09:53:45;8.90;;;1.92;;
60243;SDS011;46106;51.468;5.814;2023-01-08T09:56:15;7.72;;;1.20;;
60243;SDS011;46106;51.468;5.814;2023-01-08T09:58:43;11.02;;;1.33;;
60243;SDS011;46106;51.468;5.814;2023-01-08T10:01:13;6.10;;;1.10;;
60243;SDS011;46106;51.468;5.814;2023-01-08T10:03:46;23.63;;;1.60;;
60243;SDS011;46106;51.468;5.814;2023-01-08T10:08:40;7.88;;;1.25;;
60243;SDS011;46106;51.468;5.814;2023-01-08T10:11:06;10.20;;;1.58;;
60243;SDS011;46106;51.468;5.814;2023-01-08T10:13:33;6.43;;;1.05;;
60243;SDS011;46106;51.468;5.814;2023-01-08T10:16:06;13.02;;;1.75;;
60243;SDS011;46106;51.468;5.814;2023-01-08T10:18:34;4.60;;;1.10;;
60243;SDS011;46106;51.468;5.814;2023-01-08T10:21:00;14.45;;;1.52;;
60243;SDS011;46106;51.468;5.814;2023-01-08T10:23:25;12.38;;;1.75;;
60243;SDS011;46106;51.468;5.814;2023-01-08T10:25:58;12.50;;;2.60;;
60243;SDS011;46106;51.468;5.814;2023-01-08T10:28:32;3.28;;;1.58;;
60243;SDS011;46106;51.468;5.814;2023-01-08T10:31:06;14.88;;;1.98;;
60243;SDS011;46106;51.468;5.814;2023-01-08T10:33:40;14.57;;;1.45;;
60243;SDS011;46106;51.468;5.814;2023-01-08T10:36:12;7.13;;;1.33;;
60243;SDS011;46106;51.468;5.814;2023-01-08T10:38:41;10.85;;;1.40;;
60243;SDS011;46106;51.468;5.814;2023-01-08T10:41:14;12.80;;;2.00;;
60243;SDS011;46106;51.468;5.814;2023-01-08T10:46:22;7.03;;;0.93;;
60243;SDS011;46106;51.468;5.814;2023-01-08T10:48:50;13.02;;;1.80;;
60243;SDS011;46106;51.468;5.814;2023-01-08T10:51:20;7.70;;;1.23;;
60243;SDS011;46106;51.468;5.814;2023-01-08T10:53:48;11.00;;;2.38;;
60243;SDS011;46106;51.468;5.814;2023-01-08T10:56:20;3.53;;;1.13;;
60243;SDS011;46106;51.468;5.814;2023-01-08T10:58:47;6.15;;;1.20;;
60243;SDS011;46106;51.468;5.814;2023-01-08T11:01:15;4.13;;;1.10;;
60243;SDS011;46106;51.468;5.814;2023-01-08T11:03:48;1.30;;;0.75;;
60243;SDS011;46106;51.468;5.814;2023-01-08T11:06:20;4.45;;;0.90;;
60243;SDS011;46106;51.468;5.814;2023-01-08T11:08:51;3.20;;;0.80;;
60243;SDS011;46106;51.468;5.814;2023-01-08T11:11:35;4.57;;;1.08;;
60243;SDS011;46106;51.468;5.814;2023-01-08T11:14:03;3.90;;;0.73;;
60243;SDS011;46106;51.468;5.814;2023-01-08T11:16:38;2.28;;;0.70;;
60243;SDS011;46106;51.468;5.814;2023-01-08T11:19:13;2.88;;;0.52;;
60243;SDS011;46106;51.468;5.814;2023-01-08T11:21:53;4.45;;;0.70;;
60243;SDS011;46106;51.468;5.814;2023-01-08T11:24:28;1.83;;;0.60;;
60243;SDS011;46106;51.468;5.814;2023-01-08T11:27:07;4.93;;;0.80;;
60243;SDS011;46106;51.468;5.814;2023-01-08T11:32:35;2.58;;;0.60;;
60243;SDS011;46106;51.468;5.814;2023-01-08T11:37:57;2.33;;;1.00;;
60243;SDS011;46106;51.468;5.814;2023-01-08T11:46:19;2.20;;;0.60;;
60243;SDS011;46106;51.468;5.814;2023-01-08T12:07:56;4.38;;;0.70;;
60243;SDS011;46106;51.468;5.814;2023-01-08T12:11:11;2.80;;;0.60;;
60243;SDS011;46106;51.468;5.814;2023-01-08T12:14:05;1.55;;;0.50;;
60243;SDS011;46106;51.468;5.814;2023-01-08T12:17:24;1.30;;;0.80;;
60243;SDS011;46106;51.468;5.814;2023-01-08T12:34:15;6.15;;;0.90;;
60243;SDS011;46106;51.468;5.814;2023-01-08T12:36:45;3.17;;;0.65;;
60243;SDS011;46106;51.468;5.814;2023-01-08T12:39:18;4.57;;;0.70;;
60243;SDS011;46106;51.468;5.814;2023-01-08T12:41:48;5.40;;;0.73;;
60243;SDS011;46106;51.468;5.814;2023-01-08T12:44:20;8.95;;;1.55;;
60243;SDS011;46106;51.468;5.814;2023-01-08T12:46:49;10.55;;;1.00;;
60243;SDS011;46106;51.468;5.814;2023-01-08T12:49:24;1.83;;;0.70;;
60243;SDS011;46106;51.468;5.814;2023-01-08T12:52:01;7.57;;;1.08;;
60243;SDS011;46106;51.468;5.814;2023-01-08T13:00:03;6.07;;;0.88;;
60243;SDS011;46106;51.468;5.814;2023-01-08T13:02:58;3.58;;;1.10;;
60243;SDS011;46106;51.468;5.814;2023-01-08T13:07:52;3.60;;;0.93;;
60243;SDS011;46106;51.468;5.814;2023-01-08T13:10:36;4.63;;;0.70;;
60243;SDS011;46106;51.468;5.814;2023-01-08T13:13:24;4.78;;;1.02;;
60243;SDS011;46106;51.468;5.814;2023-01-08T13:15:50;3.55;;;0.90;;
60243;SDS011;46106;51.468;5.814;2023-01-08T13:18:16;7.05;;;0.98;;
60243;SDS011;46106;51.468;5.814;2023-01-08T13:20:57;6.93;;;0.90;;
60243;SDS011;46106;51.468;5.814;2023-01-08T13:23:28;5.88;;;0.82;;
60243;SDS011;46106;51.468;5.814;2023-01-08T13:25:56;4.18;;;0.60;;
60243;SDS011;46106;51.468;5.814;2023-01-08T13:30:49;5.75;;;0.73;;
60243;SDS011;46106;51.468;5.814;2023-01-08T13:33:49;8.80;;;1.00;;
60243;SDS011;46106;51.468;5.814;2023-01-08T13:38:36;10.02;;;1.17;;
60243;SDS011;46106;51.468;5.814;2023-01-08T13:41:01;2.97;;;0.73;;
60243;SDS011;46106;51.468;5.814;2023-01-08T13:43:28;5.88;;;0.80;;
60243;SDS011;46106;51.468;5.814;2023-01-08T13:48:25;6.60;;;0.80;;
60243;SDS011;46106;51.468;5.814;2023-01-08T13:50:51;1.80;;;0.70;;
60243;SDS011;46106;51.468;5.814;2023-01-08T13:53:17;2.35;;;0.50;;
60243;SDS011;46106;51.468;5.814;2023-01-08T13:55:47;6.75;;;0.60;;
60243;SDS011;46106;51.468;5.814;2023-01-08T13:58:23;4.00;;;0.80;;
60243;SDS011;46106;51.468;5.814;2023-01-08T14:00:52;6.22;;;0.60;;
60243;SDS011;46106;51.468;5.814;2023-01-08T14:03:23;10.90;;;1.20;;
60243;SDS011;46106;51.468;5.814;2023-01-08T14:05:49;3.92;;;0.70;;
60243;SDS011;46106;51.468;5.814;2023-01-08T14:08:24;7.57;;;0.85;;
60243;SDS011;46106;51.468;5.814;2023-01-08T14:10:51;4.80;;;0.77;;
60243;SDS011;46106;51.468;5.814;2023-01-08T14:13:19;7.05;;;0.82;;
60243;SDS011;46106;51.468;5.814;2023-01-08T14:15:52;11.10;;;1.02;;
60243;SDS011;46106;51.468;5.814;2023-01-08T14:18:22;5.43;;;0.65;;
60243;SDS011;46106;51.468;5.814;2023-01-08T14:20:48;4.95;;;0.80;;
60243;SDS011;46106;51.468;5.814;2023-01-08T14:23:20;11.57;;;0.73;;
60243;SDS011;46106;51.468;5.814;2023-01-08T14:25:48;4.30;;;0.80;;
60243;SDS011;46106;51.468;5.814;2023-01-08T14:28:15;8.82;;;1.15;;
60243;SDS011;46106;51.468;5.814;2023-01-08T14:30:46;9.55;;;0.95;;
60243;SDS011;46106;51.468;5.814;2023-01-08T14:33:15;6.28;;;0.95;;
60243;SDS011;46106;51.468;5.814;2023-01-08T14:35:43;3.78;;;0.80;;
60243;SDS011;46106;51.468;5.814;2023-01-08T14:38:10;3.65;;;0.80;;
60243;SDS011;46106;51.468;5.814;2023-01-08T14:40:37;7.95;;;1.08;;
60243;SDS011;46106;51.468;5.814;2023-01-08T14:43:08;3.78;;;0.75;;
60243;SDS011;46106;51.468;5.814;2023-01-08T14:45:37;3.13;;;0.80;;
60243;SDS011;46106;51.468;5.814;2023-01-08T14:50:52;6.75;;;0.80;;
60243;SDS011;46106;51.468;5.814;2023-01-08T14:53:44;11.52;;;0.93;;
60243;SDS011;46106;51.468;5.814;2023-01-08T14:56:15;7.97;;;0.80;;
60243;SDS011;46106;51.468;5.814;2023-01-08T14:58:43;5.18;;;0.80;;
60243;SDS011;46106;51.468;5.814;2023-01-08T15:01:23;4.07;;;0.98;;
60243;SDS011;46106;51.468;5.814;2023-01-08T15:04:11;6.50;;;0.75;;
60243;SDS011;46106;51.468;5.814;2023-01-08T15:06:42;7.38;;;0.75;;
60243;SDS011;46106;51.468;5.814;2023-01-08T15:09:22;8.32;;;0.68;;
60243;SDS011;46106;51.468;5.814;2023-01-08T15:11:52;3.80;;;1.40;;
60243;SDS011;46106;51.468;5.814;2023-01-08T15:14:23;5.20;;;0.95;;
60243;SDS011;46106;51.468;5.814;2023-01-08T15:16:50;10.00;;;1.17;;
60243;SDS011;46106;51.468;5.814;2023-01-08T15:19:22;6.80;;;1.20;;
60243;SDS011;46106;51.468;5.814;2023-01-08T15:21:50;4.03;;;0.77;;
60243;SDS011;46106;51.468;5.814;2023-01-08T15:24:28;1.80;;;0.70;;
60243;SDS011;46106;51.468;5.814;2023-01-08T15:27:05;10.20;;;1.75;;
60243;SDS011;46106;51.468;5.814;2023-01-08T15:29:36;2.80;;;0.80;;
60243;SDS011;46106;51.468;5.814;2023-01-08T15:32:08;7.65;;;1.17;;
60243;SDS011;46106;51.468;5.814;2023-01-08T15:34:36;4.20;;;1.00;;
60243;SDS011;46106;51.468;5.814;2023-01-08T15:37:02;4.55;;;0.90;;
60243;SDS011;46106;51.468;5.814;2023-01-08T15:39:29;2.60;;;0.80;;
60243;SDS011;46106;51.468;5.814;2023-01-08T15:41:54;7.80;;;0.80;;
60243;SDS011;46106;51.468;5.814;2023-01-08T15:44:38;4.70;;;0.80;;
60243;SDS011;46106;51.468;5.814;2023-01-08T15:47:04;6.07;;;0.80;;
60243;SDS011;46106;51.468;5.814;2023-01-08T15:49:29;3.65;;;0.60;;
60243;SDS011;46106;51.468;5.814;2023-01-08T15:51:55;2.63;;;0.65;;
60243;SDS011;46106;51.468;5.814;2023-01-08T15:54:22;3.75;;;0.50;;
60243;SDS011;46106;51.468;5.814;2023-01-08T15:56:49;10.55;;;0.80;;
60243;SDS011;46106;51.468;5.814;2023-01-08T15:59:15;1.95;;;0.98;;
60243;SDS011;46106;51.468;5.814;2023-01-08T16:01:40;6.97;;;0.90;;
60243;SDS011;46106;51.468;5.814;2023-01-08T16:04:06;5.47;;;1.77;;
60243;SDS011;46106;51.468;5.814;2023-01-08T16:06:32;4.47;;;0.88;;
60243;SDS011;46106;51.468;5.814;2023-01-08T16:08:57;9.18;;;1.05;;
60243;SDS011;46106;51.468;5.814;2023-01-08T16:11:24;3.67;;;0.80;;
60243;SDS011;46106;51.468;5.814;2023-01-08T16:13:50;5.63;;;1.13;;
60243;SDS011;46106;51.468;5.814;2023-01-08T16:16:15;4.85;;;0.95;;